sensor_id;sensor_type;location;lat;lon;timestamp;P1;durP1;ratioP1;P2;durP2;ratioP2
10335;SDS011;5213;53.548;9.930;2023-07-13T00:02:00;4.68;;;3.35;;
10335;SDS011;5213;53.548;9.930;2023-07-13T00:04:26;5.47;;;3.63;;
10335;SDS011;5213;53.548;9.930;2023-07-13T00:06:52;3.80;;;3.30;;
10335;SDS011;5213;53.548;9.930;2023-07-13T00:09:18;4.43;;;3.72;;
10335;SDS011;5213;53.548;9.930;2023-07-13T00:11:44;4.60;;;4.15;;
10335;SDS011;5213;53.548;9.930;2023-07-13T00:14:14;4.68;;;4.00;;
10335;SDS011;5213;53.548;9.930;2023-07-13T00:16:40;5.43;;;4.15;;
10335;SDS011;5213;53.548;9.930;2023-07-13T00:19:08;5.25;;;4.70;;
10335;SDS011;5213;53.548;9.930;2023-07-13T00:21:35;4.72;;;4.20;;
10335;SDS011;5213;53.548;9.930;2023-07-13T00:24:01;4.90;;;4.43;;
10335;SDS011;5213;53.548;9.930;2023-07-13T00:26:28;5.45;;;4.13;;
10335;SDS011;5213;53.548;9.930;2023-07-13T00:28:53;3.88;;;3.58;;
10335;SDS011;5213;53.548;9.930;2023-07-13T00:31:19;4.57;;;3.78;;
10335;SDS011;5213;53.548;9.930;2023-07-13T00:33:44;5.07;;;3.97;;
10335;SDS011;5213;53.548;9.930;2023-07-13T00:36:10;5.18;;;4.15;;
10335;SDS011;5213;53.548;9.930;2023-07-13T00:38:36;5.07;;;4.00;;
10335;SDS011;5213;53.548;9.930;2023-07-13T00:41:03;7.97;;;3.97;;
10335;SDS011;5213;53.548;9.930;2023-07-13T00:43:29;4.63;;;4.22;;
10335;SDS011;5213;53.548;9.930;2023-07-13T00:48:21;8.63;;;4.80;;
10335;SDS011;5213;53.548;9.930;2023-07-13T00:50:52;4.80;;;4.40;;
10335;SDS011;5213;53.548;9.930;2023-07-13T00:53:20;6.47;;;4.50;;
10335;SDS011;5213;53.548;9.930;2023-07-13T00:55:46;5.10;;;4.60;;
10335;SDS011;5213;53.548;9.930;2023-07-13T00:58:14;6.10;;;4.50;;
10335;SDS011;5213;53.548;9.930;2023-07-13T01:00:41;7.97;;;4.65;;
10335;SDS011;5213;53.548;9.930;2023-07-13T01:03:06;7.68;;;4.93;;
10335;SDS011;5213;53.548;9.930;2023-07-13T01:05:33;8.90;;;5.10;;
10335;SDS011;5213;53.548;9.930;2023-07-13T01:08:00;7.35;;;4.78;;
10335;SDS011;5213;53.548;9.930;2023-07-13T01:10:39;6.00;;;4.88;;
10335;SDS011;5213;53.548;9.930;2023-07-13T01:13:09;8.07;;;5.45;;
10335;SDS011;5213;53.548;9.930;2023-07-13T01:18:02;6.93;;;5.40;;
10335;SDS011;5213;53.548;9.930;2023-07-13T01:20:30;6.07;;;5.50;;
10335;SDS011;5213;53.548;9.930;2023-07-13T01:22:56;8.95;;;6.03;;
10335;SDS011;5213;53.548;9.930;2023-07-13T01:25:22;8.20;;;5.45;;
10335;SDS011;5213;53.548;9.930;2023-07-13T01:27:47;8.90;;;6.43;;
10335;SDS011;5213;53.548;9.930;2023-07-13T01:30:13;10.95;;;7.05;;
10335;SDS011;5213;53.548;9.930;2023-07-13T01:32:38;8.45;;;6.53;;
10335;SDS011;5213;53.548;9.930;2023-07-13T01:35:07;10.05;;;6.90;;
10335;SDS011;5213;53.548;9.930;2023-07-13T01:37:33;9.43;;;6.20;;
10335;SDS011;5213;53.548;9.930;2023-07-13T01:43:04;9.35;;;7.28;;
10335;SDS011;5213;53.548;9.930;2023-07-13T01:45:30;10.48;;;8.13;;
10335;SDS011;5213;53.548;9.930;2023-07-13T01:47:56;9.27;;;7.80;;
10335;SDS011;5213;53.548;9.930;2023-07-13T01:50:22;8.82;;;7.53;;
10335;SDS011;5213;53.548;9.930;2023-07-13T01:52:48;9.35;;;8.18;;
10335;SDS011;5213;53.548;9.930;2023-07-13T01:55:14;11.00;;;8.40;;
10335;SDS011;5213;53.548;9.930;2023-07-13T01:57:40;11.07;;;8.80;;
10335;SDS011;5213;53.548;9.930;2023-07-13T02:00:06;10.00;;;8.98;;
10335;SDS011;5213;53.548;9.930;2023-07-13T02:02:34;10.18;;;9.02;;
10335;SDS011;5213;53.548;9.930;2023-07-13T02:04:59;11.45;;;9.48;;
10335;SDS011;5213;53.548;9.930;2023-07-13T02:07:25;11.38;;;9.10;;
10335;SDS011;5213;53.548;9.930;2023-07-13T02:09:50;15.10;;;10.15;;
10335;SDS011;5213;53.548;9.930;2023-07-13T02:12:16;10.80;;;9.40;;
10335;SDS011;5213;53.548;9.930;2023-07-13T02:14:42;15.23;;;10.43;;
10335;SDS011;5213;53.548;9.930;2023-07-13T02:17:09;15.52;;;10.60;;
10335;SDS011;5213;53.548;9.930;2023-07-13T02:19:35;18.08;;;10.10;;
10335;SDS011;5213;53.548;9.930;2023-07-13T02:22:01;16.70;;;10.30;;
10335;SDS011;5213;53.548;9.930;2023-07-13T02:24:27;14.75;;;9.48;;
10335;SDS011;5213;53.548;9.930;2023-07-13T02:26:52;12.30;;;8.65;;
10335;SDS011;5213;53.548;9.930;2023-07-13T02:29:18;14.60;;;9.25;;
10335;SDS011;5213;53.548;9.930;2023-07-13T02:31:44;11.90;;;8.05;;
10335;SDS011;5213;53.548;9.930;2023-07-13T02:34:09;11.60;;;8.23;;
10335;SDS011;5213;53.548;9.930;2023-07-13T02:36:35;11.30;;;8.38;;
10335;SDS011;5213;53.548;9.930;2023-07-13T02:39:01;9.05;;;7.88;;
10335;SDS011;5213;53.548;9.930;2023-07-13T02:41:29;12.52;;;8.50;;
10335;SDS011;5213;53.548;9.930;2023-07-13T02:43:54;13.30;;;8.27;;
10335;SDS011;5213;53.548;9.930;2023-07-13T02:46:28;10.55;;;8.05;;
10335;SDS011;5213;53.548;9.930;2023-07-13T02:48:54;12.02;;;7.82;;
10335;SDS011;5213;53.548;9.930;2023-07-13T02:51:19;10.90;;;7.25;;
10335;SDS011;5213;53.548;9.930;2023-07-13T02:53:45;10.82;;;7.72;;
10335;SDS011;5213;53.548;9.930;2023-07-13T02:56:11;8.35;;;7.28;;
10335;SDS011;5213;53.548;9.930;2023-07-13T02:58:37;8.00;;;7.20;;
10335;SDS011;5213;53.548;9.930;2023-07-13T03:01:07;9.15;;;6.80;;
10335;SDS011;5213;53.548;9.930;2023-07-13T03:03:34;8.02;;;7.00;;
10335;SDS011;5213;53.548;9.930;2023-07-13T03:06:00;7.68;;;6.85;;
10335;SDS011;5213;53.548;9.930;2023-07-13T03:08:28;7.75;;;6.43;;
10335;SDS011;5213;53.548;9.930;2023-07-13T03:11:01;8.23;;;6.72;;
10335;SDS011;5213;53.548;9.930;2023-07-13T03:13:32;9.35;;;6.57;;
10335;SDS011;5213;53.548;9.930;2023-07-13T03:15:58;9.07;;;6.72;;
10335;SDS011;5213;53.548;9.930;2023-07-13T03:18:23;7.07;;;6.38;;
10335;SDS011;5213;53.548;9.930;2023-07-13T03:20:51;7.95;;;6.80;;
10335;SDS011;5213;53.548;9.930;2023-07-13T03:23:17;8.57;;;6.32;;
10335;SDS011;5213;53.548;9.930;2023-07-13T03:25:44;8.95;;;6.60;;
10335;SDS011;5213;53.548;9.930;2023-07-13T03:28:10;9.77;;;7.68;;
10335;SDS011;5213;53.548;9.930;2023-07-13T03:30:36;9.27;;;8.27;;
10335;SDS011;5213;53.548;9.930;2023-07-13T03:33:02;10.40;;;8.15;;
10335;SDS011;5213;53.548;9.930;2023-07-13T03:35:28;8.32;;;7.53;;
10335;SDS011;5213;53.548;9.930;2023-07-13T03:37:53;8.00;;;7.20;;
10335;SDS011;5213;53.548;9.930;2023-07-13T03:40:20;7.32;;;6.53;;
10335;SDS011;5213;53.548;9.930;2023-07-13T03:42:46;7.00;;;6.18;;
10335;SDS011;5213;53.548;9.930;2023-07-13T03:45:11;8.07;;;6.13;;
10335;SDS011;5213;53.548;9.930;2023-07-13T03:47:37;6.13;;;5.50;;
10335;SDS011;5213;53.548;9.930;2023-07-13T03:50:03;6.78;;;5.40;;
10335;SDS011;5213;53.548;9.930;2023-07-13T03:52:29;8.48;;;5.63;;
10335;SDS011;5213;53.548;9.930;2023-07-13T03:54:54;7.32;;;5.15;;
10335;SDS011;5213;53.548;9.930;2023-07-13T03:57:20;6.55;;;5.18;;
10335;SDS011;5213;53.548;9.930;2023-07-13T03:59:45;7.28;;;5.32;;
10335;SDS011;5213;53.548;9.930;2023-07-13T04:02:11;6.18;;;4.40;;
10335;SDS011;5213;53.548;9.930;2023-07-13T04:04:37;6.88;;;4.55;;
10335;SDS011;5213;53.548;9.930;2023-07-13T04:07:05;7.63;;;4.65;;
10335;SDS011;5213;53.548;9.930;2023-07-13T04:09:33;6.72;;;4.38;;
10335;SDS011;5213;53.548;9.930;2023-07-13T04:11:59;7.00;;;4.55;;
10335;SDS011;5213;53.548;9.930;2023-07-13T04:14:24;10.13;;;4.38;;
10335;SDS011;5213;53.548;9.930;2023-07-13T04:16:50;6.93;;;4.53;;
10335;SDS011;5213;53.548;9.930;2023-07-13T04:19:16;7.18;;;4.28;;
10335;SDS011;5213;53.548;9.930;2023-07-13T04:21:42;7.75;;;4.65;;
10335;SDS011;5213;53.548;9.930;2023-07-13T04:24:07;6.82;;;4.95;;
10335;SDS011;5213;53.548;9.930;2023-07-13T04:26:33;7.28;;;4.40;;
10335;SDS011;5213;53.548;9.930;2023-07-13T04:29:01;10.77;;;4.50;;
10335;SDS011;5213;53.548;9.930;2023-07-13T04:31:28;7.38;;;4.07;;
10335;SDS011;5213;53.548;9.930;2023-07-13T04:33:55;6.35;;;4.18;;
10335;SDS011;5213;53.548;9.930;2023-07-13T04:36:20;10.90;;;4.97;;
10335;SDS011;5213;53.548;9.930;2023-07-13T04:38:46;7.22;;;4.68;;
10335;SDS011;5213;53.548;9.930;2023-07-13T04:41:12;6.72;;;3.75;;
10335;SDS011;5213;53.548;9.930;2023-07-13T04:43:40;6.82;;;3.70;;
10335;SDS011;5213;53.548;9.930;2023-07-13T04:46:07;7.55;;;3.22;;
10335;SDS011;5213;53.548;9.930;2023-07-13T04:48:35;6.45;;;3.53;;
10335;SDS011;5213;53.548;9.930;2023-07-13T04:51:02;5.63;;;3.30;;
10335;SDS011;5213;53.548;9.930;2023-07-13T04:53:27;7.88;;;3.40;;
10335;SDS011;5213;53.548;9.930;2023-07-13T04:55:54;7.68;;;3.50;;
10335;SDS011;5213;53.548;9.930;2023-07-13T04:58:20;5.85;;;3.35;;
10335;SDS011;5213;53.548;9.930;2023-07-13T05:00:46;4.32;;;3.58;;
10335;SDS011;5213;53.548;9.930;2023-07-13T05:03:12;6.88;;;3.63;;
10335;SDS011;5213;53.548;9.930;2023-07-13T05:05:38;6.53;;;3.50;;
10335;SDS011;5213;53.548;9.930;2023-07-13T05:08:03;4.30;;;3.70;;
10335;SDS011;5213;53.548;9.930;2023-07-13T05:10:29;5.65;;;3.83;;
10335;SDS011;5213;53.548;9.930;2023-07-13T05:12:55;5.70;;;3.92;;
10335;SDS011;5213;53.548;9.930;2023-07-13T05:15:21;5.90;;;4.10;;
10335;SDS011;5213;53.548;9.930;2023-07-13T05:17:47;7.15;;;4.07;;
10335;SDS011;5213;53.548;9.930;2023-07-13T05:20:14;8.85;;;3.72;;
10335;SDS011;5213;53.548;9.930;2023-07-13T05:22:40;6.18;;;4.03;;
10335;SDS011;5213;53.548;9.930;2023-07-13T05:25:07;8.27;;;4.13;;
10335;SDS011;5213;53.548;9.930;2023-07-13T05:27:33;6.25;;;4.18;;
10335;SDS011;5213;53.548;9.930;2023-07-13T05:29:59;10.27;;;4.40;;
10335;SDS011;5213;53.548;9.930;2023-07-13T05:32:25;8.18;;;4.03;;
10335;SDS011;5213;53.548;9.930;2023-07-13T05:34:51;5.63;;;3.88;;
10335;SDS011;5213;53.548;9.930;2023-07-13T05:37:17;8.73;;;4.25;;
10335;SDS011;5213;53.548;9.930;2023-07-13T05:39:42;9.15;;;4.25;;
10335;SDS011;5213;53.548;9.930;2023-07-13T05:42:08;4.22;;;3.85;;
10335;SDS011;5213;53.548;9.930;2023-07-13T05:44:34;9.43;;;4.25;;
10335;SDS011;5213;53.548;9.930;2023-07-13T05:46:59;9.95;;;4.88;;
10335;SDS011;5213;53.548;9.930;2023-07-13T05:49:25;12.15;;;4.68;;
10335;SDS011;5213;53.548;9.930;2023-07-13T05:51:50;7.00;;;4.45;;
10335;SDS011;5213;53.548;9.930;2023-07-13T05:54:16;7.00;;;4.40;;
10335;SDS011;5213;53.548;9.930;2023-07-13T05:56:42;11.98;;;4.43;;
10335;SDS011;5213;53.548;9.930;2023-07-13T05:59:07;6.55;;;4.18;;
10335;SDS011;5213;53.548;9.930;2023-07-13T06:01:33;8.88;;;4.22;;
10335;SDS011;5213;53.548;9.930;2023-07-13T06:03:59;7.22;;;4.05;;
10335;SDS011;5213;53.548;9.930;2023-07-13T06:06:24;11.27;;;4.40;;
10335;SDS011;5213;53.548;9.930;2023-07-13T06:08:50;9.73;;;4.53;;
10335;SDS011;5213;53.548;9.930;2023-07-13T06:11:20;7.97;;;4.40;;
10335;SDS011;5213;53.548;9.930;2023-07-13T06:13:47;9.10;;;4.80;;
10335;SDS011;5213;53.548;9.930;2023-07-13T06:16:13;9.05;;;4.38;;
10335;SDS011;5213;53.548;9.930;2023-07-13T06:18:40;12.77;;;4.97;;
10335;SDS011;5213;53.548;9.930;2023-07-13T06:21:07;9.93;;;4.38;;
10335;SDS011;5213;53.548;9.930;2023-07-13T06:23:34;7.60;;;3.90;;
10335;SDS011;5213;53.548;9.930;2023-07-13T06:26:00;9.23;;;4.82;;
10335;SDS011;5213;53.548;9.930;2023-07-13T06:28:25;13.27;;;4.20;;
10335;SDS011;5213;53.548;9.930;2023-07-13T06:30:51;9.18;;;4.32;;
10335;SDS011;5213;53.548;9.930;2023-07-13T06:33:16;10.65;;;4.05;;
10335;SDS011;5213;53.548;9.930;2023-07-13T06:35:42;8.40;;;3.72;;
10335;SDS011;5213;53.548;9.930;2023-07-13T06:38:08;7.55;;;3.78;;
10335;SDS011;5213;53.548;9.930;2023-07-13T06:40:33;8.98;;;3.90;;
10335;SDS011;5213;53.548;9.930;2023-07-13T06:42:59;10.13;;;3.88;;
10335;SDS011;5213;53.548;9.930;2023-07-13T06:45:25;9.50;;;3.80;;
10335;SDS011;5213;53.548;9.930;2023-07-13T06:47:50;8.85;;;3.85;;
10335;SDS011;5213;53.548;9.930;2023-07-13T06:50:16;12.07;;;3.60;;
10335;SDS011;5213;53.548;9.930;2023-07-13T06:52:42;10.57;;;3.95;;
10335;SDS011;5213;53.548;9.930;2023-07-13T06:55:07;9.27;;;3.75;;
10335;SDS011;5213;53.548;9.930;2023-07-13T06:57:33;8.90;;;3.63;;
10335;SDS011;5213;53.548;9.930;2023-07-13T06:59:59;9.85;;;3.95;;
10335;SDS011;5213;53.548;9.930;2023-07-13T07:02:24;9.02;;;3.72;;
10335;SDS011;5213;53.548;9.930;2023-07-13T07:04:50;7.00;;;3.22;;
10335;SDS011;5213;53.548;9.930;2023-07-13T07:07:16;9.90;;;3.80;;
10335;SDS011;5213;53.548;9.930;2023-07-13T07:09:42;9.48;;;3.47;;
10335;SDS011;5213;53.548;9.930;2023-07-13T07:12:07;8.27;;;3.85;;
10335;SDS011;5213;53.548;9.930;2023-07-13T07:14:33;8.02;;;3.47;;
10335;SDS011;5213;53.548;9.930;2023-07-13T07:16:59;8.93;;;3.20;;
10335;SDS011;5213;53.548;9.930;2023-07-13T07:19:25;9.20;;;3.53;;
10335;SDS011;5213;53.548;9.930;2023-07-13T07:21:51;7.78;;;3.50;;
10335;SDS011;5213;53.548;9.930;2023-07-13T07:24:16;9.85;;;3.30;;
10335;SDS011;5213;53.548;9.930;2023-07-13T07:26:42;10.60;;;3.60;;
10335;SDS011;5213;53.548;9.930;2023-07-13T07:29:08;9.27;;;3.75;;
10335;SDS011;5213;53.548;9.930;2023-07-13T07:31:33;9.98;;;3.40;;
10335;SDS011;5213;53.548;9.930;2023-07-13T07:33:59;8.50;;;3.30;;
10335;SDS011;5213;53.548;9.930;2023-07-13T07:36:25;10.15;;;3.20;;
10335;SDS011;5213;53.548;9.930;2023-07-13T07:38:50;7.90;;;3.13;;
10335;SDS011;5213;53.548;9.930;2023-07-13T07:41:16;10.23;;;3.83;;
10335;SDS011;5213;53.548;9.930;2023-07-13T07:43:42;12.15;;;3.38;;
10335;SDS011;5213;53.548;9.930;2023-07-13T07:46:07;4.82;;;2.75;;
10335;SDS011;5213;53.548;9.930;2023-07-13T07:48:33;7.35;;;3.10;;
10335;SDS011;5213;53.548;9.930;2023-07-13T07:50:58;5.60;;;2.97;;
10335;SDS011;5213;53.548;9.930;2023-07-13T07:53:24;11.68;;;3.20;;
10335;SDS011;5213;53.548;9.930;2023-07-13T07:55:50;6.22;;;3.28;;
10335;SDS011;5213;53.548;9.930;2023-07-13T07:58:16;6.40;;;3.13;;
10335;SDS011;5213;53.548;9.930;2023-07-13T08:00:42;8.95;;;3.33;;
10335;SDS011;5213;53.548;9.930;2023-07-13T08:03:07;10.77;;;3.50;;
10335;SDS011;5213;53.548;9.930;2023-07-13T08:05:34;8.13;;;3.47;;
10335;SDS011;5213;53.548;9.930;2023-07-13T08:08:01;7.53;;;3.10;;
10335;SDS011;5213;53.548;9.930;2023-07-13T08:10:27;7.55;;;3.08;;
10335;SDS011;5213;53.548;9.930;2023-07-13T08:12:52;6.75;;;2.97;;
10335;SDS011;5213;53.548;9.930;2023-07-13T08:15:18;10.80;;;3.15;;
10335;SDS011;5213;53.548;9.930;2023-07-13T08:17:46;13.93;;;3.10;;
10335;SDS011;5213;53.548;9.930;2023-07-13T08:20:12;8.80;;;3.10;;
10335;SDS011;5213;53.548;9.930;2023-07-13T08:22:38;5.93;;;2.90;;
10335;SDS011;5213;53.548;9.930;2023-07-13T08:25:04;10.90;;;3.42;;
10335;SDS011;5213;53.548;9.930;2023-07-13T08:27:30;6.85;;;2.97;;
10335;SDS011;5213;53.548;9.930;2023-07-13T08:29:56;9.57;;;3.25;;
10335;SDS011;5213;53.548;9.930;2023-07-13T08:32:22;9.07;;;2.85;;
10335;SDS011;5213;53.548;9.930;2023-07-13T08:34:48;7.45;;;3.20;;
10335;SDS011;5213;53.548;9.930;2023-07-13T08:37:14;8.05;;;3.17;;
10335;SDS011;5213;53.548;9.930;2023-07-13T08:39:41;9.90;;;2.83;;
10335;SDS011;5213;53.548;9.930;2023-07-13T08:47:07;7.22;;;2.70;;
10335;SDS011;5213;53.548;9.930;2023-07-13T08:49:35;3.22;;;2.40;;
10335;SDS011;5213;53.548;9.930;2023-07-13T08:52:06;6.55;;;2.80;;
10335;SDS011;5213;53.548;9.930;2023-07-13T08:54:38;6.22;;;3.20;;
10335;SDS011;5213;53.548;9.930;2023-07-13T08:57:12;7.93;;;3.00;;
10335;SDS011;5213;53.548;9.930;2023-07-13T08:59:43;7.38;;;2.67;;
10335;SDS011;5213;53.548;9.930;2023-07-13T09:03:12;6.75;;;2.78;;
10335;SDS011;5213;53.548;9.930;2023-07-13T09:05:12;4.32;;;2.60;;
10335;SDS011;5213;53.548;9.930;2023-07-13T09:08:04;3.40;;;2.50;;
10335;SDS011;5213;53.548;9.930;2023-07-13T09:10:43;4.28;;;2.67;;
10335;SDS011;5213;53.548;9.930;2023-07-13T09:15:46;5.38;;;2.60;;
10335;SDS011;5213;53.548;9.930;2023-07-13T09:18:15;3.88;;;2.40;;
10335;SDS011;5213;53.548;9.930;2023-07-13T09:21:03;4.95;;;2.60;;
10335;SDS011;5213;53.548;9.930;2023-07-13T09:23:34;4.88;;;2.42;;
10335;SDS011;5213;53.548;9.930;2023-07-13T09:26:05;3.40;;;2.38;;
10335;SDS011;5213;53.548;9.930;2023-07-13T09:28:44;6.25;;;2.70;;
10335;SDS011;5213;53.548;9.930;2023-07-13T09:31:16;5.07;;;2.33;;
10335;SDS011;5213;53.548;9.930;2023-07-13T09:33:54;8.32;;;2.75;;
10335;SDS011;5213;53.548;9.930;2023-07-13T09:38:49;6.03;;;2.45;;
10335;SDS011;5213;53.548;9.930;2023-07-13T09:41:31;4.38;;;2.40;;
10335;SDS011;5213;53.548;9.930;2023-07-13T09:44:08;7.10;;;2.53;;
10335;SDS011;5213;53.548;9.930;2023-07-13T09:46:35;6.38;;;2.38;;
10335;SDS011;5213;53.548;9.930;2023-07-13T09:49:01;4.35;;;2.60;;
10335;SDS011;5213;53.548;9.930;2023-07-13T09:51:27;4.88;;;2.42;;
10335;SDS011;5213;53.548;9.930;2023-07-13T09:53:53;3.42;;;2.50;;
10335;SDS011;5213;53.548;9.930;2023-07-13T09:56:37;4.90;;;2.17;;
10335;SDS011;5213;53.548;9.930;2023-07-13T09:59:03;6.50;;;2.47;;
10335;SDS011;5213;53.548;9.930;2023-07-13T10:01:33;5.75;;;2.42;;
10335;SDS011;5213;53.548;9.930;2023-07-13T10:04:00;4.55;;;2.60;;
10335;SDS011;5213;53.548;9.930;2023-07-13T10:06:26;5.38;;;2.80;;
10335;SDS011;5213;53.548;9.930;2023-07-13T10:08:52;5.13;;;2.72;;
10335;SDS011;5213;53.548;9.930;2023-07-13T10:11:26;6.15;;;2.72;;
10335;SDS011;5213;53.548;9.930;2023-07-13T10:16:27;4.25;;;2.22;;
10335;SDS011;5213;53.548;9.930;2023-07-13T10:18:58;5.53;;;2.25;;
10335;SDS011;5213;53.548;9.930;2023-07-13T10:21:37;4.32;;;2.25;;
10335;SDS011;5213;53.548;9.930;2023-07-13T10:24:12;2.45;;;2.25;;
10335;SDS011;5213;53.548;9.930;2023-07-13T10:26:42;3.95;;;2.22;;
10335;SDS011;5213;53.548;9.930;2023-07-13T10:29:12;5.05;;;2.40;;
10335;SDS011;5213;53.548;9.930;2023-07-13T10:31:40;5.47;;;2.15;;
10335;SDS011;5213;53.548;9.930;2023-07-13T10:34:09;3.33;;;2.30;;
10335;SDS011;5213;53.548;9.930;2023-07-13T10:36:40;5.53;;;2.38;;
10335;SDS011;5213;53.548;9.930;2023-07-13T10:39:18;4.97;;;2.50;;
10335;SDS011;5213;53.548;9.930;2023-07-13T10:41:46;3.90;;;2.63;;
10335;SDS011;5213;53.548;9.930;2023-07-13T10:44:26;3.10;;;2.30;;
10335;SDS011;5213;53.548;9.930;2023-07-13T10:46:55;4.22;;;2.47;;
10335;SDS011;5213;53.548;9.930;2023-07-13T10:49:23;3.05;;;2.10;;
10335;SDS011;5213;53.548;9.930;2023-07-13T10:51:51;4.38;;;2.00;;
10335;SDS011;5213;53.548;9.930;2023-07-13T10:56:48;3.35;;;2.20;;
10335;SDS011;5213;53.548;9.930;2023-07-13T10:59:23;3.92;;;1.85;;
10335;SDS011;5213;53.548;9.930;2023-07-13T11:04:21;6.03;;;2.40;;
10335;SDS011;5213;53.548;9.930;2023-07-13T11:06:50;2.95;;;2.20;;
10335;SDS011;5213;53.548;9.930;2023-07-13T11:09:32;4.28;;;2.20;;
10335;SDS011;5213;53.548;9.930;2023-07-13T11:11:59;2.95;;;2.10;;
10335;SDS011;5213;53.548;9.930;2023-07-13T11:14:42;2.75;;;1.83;;
10335;SDS011;5213;53.548;9.930;2023-07-13T11:20:20;4.07;;;2.13;;
10335;SDS011;5213;53.548;9.930;2023-07-13T11:25:24;3.15;;;2.00;;
10335;SDS011;5213;53.548;9.930;2023-07-13T11:36:00;3.78;;;1.73;;
10335;SDS011;5213;53.548;9.930;2023-07-13T11:38:36;6.05;;;2.30;;
10335;SDS011;5213;53.548;9.930;2023-07-13T11:41:45;3.55;;;1.90;;
10335;SDS011;5213;53.548;9.930;2023-07-13T11:44:07;3.50;;;2.10;;
10335;SDS011;5213;53.548;9.930;2023-07-13T11:46:37;3.70;;;1.90;;
10335;SDS011;5213;53.548;9.930;2023-07-13T11:49:06;2.75;;;2.03;;
10335;SDS011;5213;53.548;9.930;2023-07-13T11:51:33;3.38;;;1.92;;
10335;SDS011;5213;53.548;9.930;2023-07-13T11:54:03;4.22;;;2.00;;
10335;SDS011;5213;53.548;9.930;2023-07-13T11:56:32;2.33;;;1.80;;
10335;SDS011;5213;53.548;9.930;2023-07-13T11:58:59;2.13;;;1.90;;
10335;SDS011;5213;53.548;9.930;2023-07-13T12:01:31;5.68;;;1.95;;
10335;SDS011;5213;53.548;9.930;2023-07-13T12:03:58;3.83;;;1.85;;
10335;SDS011;5213;53.548;9.930;2023-07-13T12:06:28;4.53;;;1.80;;
10335;SDS011;5213;53.548;9.930;2023-07-13T12:08:56;2.42;;;1.98;;
10335;SDS011;5213;53.548;9.930;2023-07-13T12:11:28;4.28;;;2.08;;
10335;SDS011;5213;53.548;9.930;2023-07-13T12:13:54;3.47;;;2.00;;
10335;SDS011;5213;53.548;9.930;2023-07-13T12:18:53;4.70;;;2.33;;
10335;SDS011;5213;53.548;9.930;2023-07-13T12:21:19;14.48;;;2.90;;
10335;SDS011;5213;53.548;9.930;2023-07-13T12:23:49;0.20;;;0.20;;
10335;SDS011;5213;53.548;9.930;2023-07-13T12:26:16;0.20;;;0.20;;
10335;SDS011;5213;53.548;9.930;2023-07-13T12:28:47;0.10;;;0.10;;
10335;SDS011;5213;53.548;9.930;2023-07-13T12:32:02;0.00;;;0.00;;
10335;SDS011;5213;53.548;9.930;2023-07-13T12:34:12;0.10;;;0.10;;
10335;SDS011;5213;53.548;9.930;2023-07-13T12:36:49;0.10;;;0.10;;
10335;SDS011;5213;53.548;9.930;2023-07-13T12:39:24;0.10;;;0.10;;
10335;SDS011;5213;53.548;9.930;2023-07-13T12:42:09;1.88;;;0.35;;
10335;SDS011;5213;53.548;9.930;2023-07-13T12:44:49;0.00;;;0.00;;
10335;SDS011;5213;53.548;9.930;2023-07-13T12:47:15;0.10;;;0.10;;
10335;SDS011;5213;53.548;9.930;2023-07-13T12:49:43;0.17;;;0.17;;
10335;SDS011;5213;53.548;9.930;2023-07-13T12:52:19;0.15;;;0.15;;
10335;SDS011;5213;53.548;9.930;2023-07-13T12:54:54;0.10;;;0.10;;
10335;SDS011;5213;53.548;9.930;2023-07-13T12:57:25;0.10;;;0.10;;
10335;SDS011;5213;53.548;9.930;2023-07-13T12:59:52;0.10;;;0.10;;
10335;SDS011;5213;53.548;9.930;2023-07-13T13:02:30;0.40;;;0.40;;
10335;SDS011;5213;53.548;9.930;2023-07-13T13:04:59;0.10;;;0.10;;
10335;SDS011;5213;53.548;9.930;2023-07-13T13:07:25;0.00;;;0.00;;
10335;SDS011;5213;53.548;9.930;2023-07-13T13:09:51;0.10;;;0.10;;
10335;SDS011;5213;53.548;9.930;2023-07-13T13:12:18;0.10;;;0.10;;
10335;SDS011;5213;53.548;9.930;2023-07-13T13:14:44;0.20;;;0.20;;
10335;SDS011;5213;53.548;9.930;2023-07-13T13:17:21;0.10;;;0.10;;
10335;SDS011;5213;53.548;9.930;2023-07-13T13:19:52;0.00;;;0.00;;
10335;SDS011;5213;53.548;9.930;2023-07-13T13:22:19;0.08;;;0.08;;
10335;SDS011;5213;53.548;9.930;2023-07-13T13:24:45;0.00;;;0.00;;
10335;SDS011;5213;53.548;9.930;2023-07-13T13:27:19;0.00;;;0.00;;
10335;SDS011;5213;53.548;9.930;2023-07-13T13:29:47;0.10;;;0.10;;
10335;SDS011;5213;53.548;9.930;2023-07-13T13:32:16;0.10;;;0.10;;
10335;SDS011;5213;53.548;9.930;2023-07-13T13:34:43;0.00;;;0.00;;
10335;SDS011;5213;53.548;9.930;2023-07-13T13:37:16;0.08;;;0.08;;
10335;SDS011;5213;53.548;9.930;2023-07-13T13:39:44;0.13;;;0.13;;
10335;SDS011;5213;53.548;9.930;2023-07-13T13:42:11;0.10;;;0.10;;
10335;SDS011;5213;53.548;9.930;2023-07-13T13:44:37;0.20;;;0.13;;
10335;SDS011;5213;53.548;9.930;2023-07-13T13:47:03;0.13;;;0.13;;
10335;SDS011;5213;53.548;9.930;2023-07-13T13:49:29;0.10;;;0.10;;
10335;SDS011;5213;53.548;9.930;2023-07-13T13:51:56;0.13;;;0.13;;
10335;SDS011;5213;53.548;9.930;2023-07-13T13:54:22;0.00;;;0.00;;
10335;SDS011;5213;53.548;9.930;2023-07-13T13:56:50;0.65;;;0.65;;
10335;SDS011;5213;53.548;9.930;2023-07-13T13:59:17;0.10;;;0.10;;
10335;SDS011;5213;53.548;9.930;2023-07-13T14:01:43;0.10;;;0.10;;
10335;SDS011;5213;53.548;9.930;2023-07-13T14:04:14;0.20;;;0.20;;
10335;SDS011;5213;53.548;9.930;2023-07-13T14:06:43;2.30;;;1.90;;
10335;SDS011;5213;53.548;9.930;2023-07-13T14:09:10;2.97;;;1.90;;
10335;SDS011;5213;53.548;9.930;2023-07-13T14:11:38;2.10;;;1.88;;
10335;SDS011;5213;53.548;9.930;2023-07-13T14:14:08;2.50;;;2.30;;
10335;SDS011;5213;53.548;9.930;2023-07-13T14:16:43;2.45;;;1.83;;
10335;SDS011;5213;53.548;9.930;2023-07-13T14:19:10;2.38;;;2.00;;
10335;SDS011;5213;53.548;9.930;2023-07-13T14:21:38;2.55;;;2.05;;
10335;SDS011;5213;53.548;9.930;2023-07-13T14:24:05;2.33;;;2.13;;
10335;SDS011;5213;53.548;9.930;2023-07-13T14:26:32;3.80;;;2.22;;
10335;SDS011;5213;53.548;9.930;2023-07-13T14:29:05;2.40;;;2.20;;
10335;SDS011;5213;53.548;9.930;2023-07-13T14:31:38;3.30;;;2.60;;
10335;SDS011;5213;53.548;9.930;2023-07-13T14:34:04;2.20;;;2.00;;
10335;SDS011;5213;53.548;9.930;2023-07-13T14:36:31;2.40;;;2.05;;
10335;SDS011;5213;53.548;9.930;2023-07-13T14:38:59;2.55;;;2.08;;
10335;SDS011;5213;53.548;9.930;2023-07-13T14:41:26;3.33;;;2.63;;
10335;SDS011;5213;53.548;9.930;2023-07-13T14:43:51;2.22;;;2.05;;
10335;SDS011;5213;53.548;9.930;2023-07-13T14:46:31;3.83;;;2.10;;
10335;SDS011;5213;53.548;9.930;2023-07-13T14:49:11;2.00;;;1.90;;
10335;SDS011;5213;53.548;9.930;2023-07-13T14:51:54;3.20;;;2.50;;
10335;SDS011;5213;53.548;9.930;2023-07-13T14:54:22;2.92;;;2.50;;
10335;SDS011;5213;53.548;9.930;2023-07-13T14:56:49;3.22;;;2.80;;
10335;SDS011;5213;53.548;9.930;2023-07-13T14:59:15;4.10;;;2.80;;
10335;SDS011;5213;53.548;9.930;2023-07-13T15:01:43;3.40;;;2.70;;
10335;SDS011;5213;53.548;9.930;2023-07-13T15:04:10;4.45;;;2.72;;
10335;SDS011;5213;53.548;9.930;2023-07-13T15:09:27;3.58;;;2.60;;
10335;SDS011;5213;53.548;9.930;2023-07-13T15:11:54;3.25;;;2.33;;
10335;SDS011;5213;53.548;9.930;2023-07-13T15:14:21;2.88;;;2.60;;
10335;SDS011;5213;53.548;9.930;2023-07-13T15:16:49;2.50;;;2.30;;
10335;SDS011;5213;53.548;9.930;2023-07-13T15:19:16;2.17;;;1.85;;
10335;SDS011;5213;53.548;9.930;2023-07-13T15:21:42;3.28;;;2.13;;
10335;SDS011;5213;53.548;9.930;2023-07-13T15:24:08;3.38;;;1.98;;
10335;SDS011;5213;53.548;9.930;2023-07-13T15:26:38;2.33;;;1.80;;
10335;SDS011;5213;53.548;9.930;2023-07-13T15:29:04;2.30;;;2.10;;
10335;SDS011;5213;53.548;9.930;2023-07-13T15:31:30;2.65;;;2.08;;
10335;SDS011;5213;53.548;9.930;2023-07-13T15:33:58;1.80;;;1.70;;
10335;SDS011;5213;53.548;9.930;2023-07-13T15:36:24;1.83;;;1.63;;
10335;SDS011;5213;53.548;9.930;2023-07-13T15:38:51;1.75;;;1.65;;
10335;SDS011;5213;53.548;9.930;2023-07-13T15:43:47;2.92;;;1.92;;
10335;SDS011;5213;53.548;9.930;2023-07-13T15:46:14;2.47;;;1.83;;
10335;SDS011;5213;53.548;9.930;2023-07-13T15:48:40;1.90;;;1.80;;
10335;SDS011;5213;53.548;9.930;2023-07-13T15:51:08;2.13;;;1.80;;
10335;SDS011;5213;53.548;9.930;2023-07-13T15:53:40;1.80;;;1.70;;